aviador You're here:

KILM Decoded Metar

WILMINGTON in NC, USA
Report Time2017-08-19 13:53:00
UTC Time2017-08-19 15:00:29
Flight Rules Old
Wind250° at 08 kt
W.Decomp.*RWY 24: 7.7 kt HW 2.3 kt RCW
RWY 17: 0.4 kt HW 8.0 kt RCW
W.Rank250° ranks 11
Current wind is below 250° avg. (8.1)
Visibility9999 m
Phenomena:N/A
Clouds:Few 021 Hf
Expected CloudBase > 2,000 ft AGL from Temp-Dew spread
CeilingNone
Temp31°C (ISA +16)
Dew Point26°C (75% RH)
Heat Index39.2°C
QNH1014 hPa
Density Alt2,274 ft
Elevation30 ft
Report Wrong Elevation
Raw Report
METAR KILM 191353Z AUTO 25008KT 10SM FEW021 31/26 A2994 RMK AO2 SLP139
T03060256=

Extra information for KILM:More info

Metar Taf Metar & Taf Last 4 Metars F.Rules Stats Wind Profile Meteogram Temp Stats Airport Information Weather charts Add Link Nearby VenuesMetar ALERT Operation Metar Decoded Social comments

AIRNAV info for KILM